Coalgood, Kentucky
Current Conditions -  °F | °C
As of 6:55 PM on Sunday 23 Nov 2014 (Local Time) from KI35 Reporting Station
Overcast Overcast  
Wind Chill: 55°   Ceiling: 2200
Heat Index: 55°   Visibility: 5mi
Dew Point: 54°   Wind: 3mph
Humidity: 94%   Direction: 120°ESE
Pressure: 29.61"   Gusts: NA
Location:  36.83°N, 83.24°W
Report Text: KI35 232355Z AUTO 12003KT 5SM SCT015 BKN022 OVC050 13/12 A2961 RMK AO1
Loading
Personal Weather Stations






























Interactive Weather Map New forecast layout! Learn more

10-Day Weather Forecast

Advertisements
Track Severe Weather on mobile